sensor_id;sensor_type;location;lat;lon;timestamp;pressure;altitude;pressure_sealevel;temperature;humidity
41636;BME280;27623;51.966;4.602;2023-12-14T00:00:11;64294.97;;;9.34;100.00
41636;BME280;27623;51.966;4.602;2023-12-14T00:02:38;64282.78;;;9.27;100.00
41636;BME280;27623;51.966;4.602;2023-12-14T00:05:08;64275.31;;;9.15;100.00
41636;BME280;27623;51.966;4.602;2023-12-14T00:07:39;64270.25;;;9.29;100.00
41636;BME280;27623;51.966;4.602;2023-12-14T00:10:05;64288.03;;;9.37;100.00
41636;BME280;27623;51.966;4.602;2023-12-14T00:12:30;64291.69;;;9.30;100.00
41636;BME280;27623;51.966;4.602;2023-12-14T00:14:56;64296.06;;;9.35;100.00
41636;BME280;27623;51.966;4.602;2023-12-14T00:17:22;64294.41;;;9.33;100.00
41636;BME280;27623;51.966;4.602;2023-12-14T00:19:50;64261.53;;;9.28;100.00
41636;BME280;27623;51.966;4.602;2023-12-14T00:22:15;64277.88;;;9.29;100.00
41636;BME280;27623;51.966;4.602;2023-12-14T00:24:43;64301.31;;;9.30;100.00
41636;BME280;27623;51.966;4.602;2023-12-14T00:27:08;64278.06;;;9.32;100.00
41636;BME280;27623;51.966;4.602;2023-12-14T00:29:34;64268.06;;;9.42;100.00
41636;BME280;27623;51.966;4.602;2023-12-14T00:31:59;64249.72;;;9.41;100.00
41636;BME280;27623;51.966;4.602;2023-12-14T00:34:24;64277.34;;;9.29;100.00
41636;BME280;27623;51.966;4.602;2023-12-14T00:36:50;64274.44;;;9.31;100.00
41636;BME280;27623;51.966;4.602;2023-12-14T00:39:15;64265.34;;;9.25;100.00
41636;BME280;27623;51.966;4.602;2023-12-14T00:41:41;64280.06;;;9.32;100.00
41636;BME280;27623;51.966;4.602;2023-12-14T00:44:06;64264.09;;;9.28;100.00
41636;BME280;27623;51.966;4.602;2023-12-14T00:46:31;64265.16;;;9.22;100.00
41636;BME280;27623;51.966;4.602;2023-12-14T00:48:57;64279.31;;;9.21;100.00
41636;BME280;27623;51.966;4.602;2023-12-14T00:51:22;64268.78;;;9.23;100.00
41636;BME280;27623;51.966;4.602;2023-12-14T00:53:47;64256.63;;;9.24;100.00
41636;BME280;27623;51.966;4.602;2023-12-14T00:56:13;64272.59;;;9.20;100.00
41636;BME280;27623;51.966;4.602;2023-12-14T00:58:38;64279.16;;;9.26;100.00
41636;BME280;27623;51.966;4.602;2023-12-14T01:01:06;64261.91;;;9.26;100.00
41636;BME280;27623;51.966;4.602;2023-12-14T01:03:32;64268.63;;;9.35;100.00
41636;BME280;27623;51.966;4.602;2023-12-14T01:05:59;64256.81;;;9.34;100.00
41636;BME280;27623;51.966;4.602;2023-12-14T01:08:25;64254.44;;;9.22;100.00
41636;BME280;27623;51.966;4.602;2023-12-14T01:10:50;64257.91;;;9.27;100.00
41636;BME280;27623;51.966;4.602;2023-12-14T01:13:15;64284.22;;;9.26;100.00
41636;BME280;27623;51.966;4.602;2023-12-14T01:15:43;64251.19;;;9.26;100.00
41636;BME280;27623;51.966;4.602;2023-12-14T01:18:08;64300.22;;;9.36;100.00
41636;BME280;27623;51.966;4.602;2023-12-14T01:20:34;64251.19;;;9.19;100.00
41636;BME280;27623;51.966;4.602;2023-12-14T01:22:59;64251.72;;;9.19;100.00
41636;BME280;27623;51.966;4.602;2023-12-14T01:25:24;64249.91;;;9.15;100.00
41636;BME280;27623;51.966;4.602;2023-12-14T01:27:50;64269.50;;;9.05;100.00
41636;BME280;27623;51.966;4.602;2023-12-14T01:30:15;64280.59;;;9.18;100.00
41636;BME280;27623;51.966;4.602;2023-12-14T01:32:41;64255.34;;;9.20;100.00
41636;BME280;27623;51.966;4.602;2023-12-14T01:35:09;64230.09;;;9.16;100.00
41636;BME280;27623;51.966;4.602;2023-12-14T01:37:36;64278.03;;;9.04;100.00
41636;BME280;27623;51.966;4.602;2023-12-14T01:40:04;64278.22;;;9.20;100.00
41636;BME280;27623;51.966;4.602;2023-12-14T01:42:30;64250.44;;;9.23;100.00
41636;BME280;27623;51.966;4.602;2023-12-14T01:44:55;64250.09;;;9.18;100.00
41636;BME280;27623;51.966;4.602;2023-12-14T01:47:23;64233.94;;;9.12;100.00
41636;BME280;27623;51.966;4.602;2023-12-14T01:49:48;64246.09;;;9.05;100.00
41636;BME280;27623;51.966;4.602;2023-12-14T01:52:16;64260.59;;;9.02;100.00
41636;BME280;27623;51.966;4.602;2023-12-14T01:54:44;64247.19;;;9.06;100.00
41636;BME280;27623;51.966;4.602;2023-12-14T01:57:09;64234.28;;;9.03;100.00
41636;BME280;27623;51.966;4.602;2023-12-14T01:59:34;64236.28;;;9.10;100.00
41636;BME280;27623;51.966;4.602;2023-12-14T02:02:02;64280.97;;;9.09;100.00
41636;BME280;27623;51.966;4.602;2023-12-14T02:04:30;64236.47;;;8.98;100.00
41636;BME280;27623;51.966;4.602;2023-12-14T02:06:55;64237.19;;;9.01;100.00
41636;BME280;27623;51.966;4.602;2023-12-14T02:09:23;64250.09;;;9.04;100.00
41636;BME280;27623;51.966;4.602;2023-12-14T02:11:48;64241.56;;;9.05;100.00
41636;BME280;27623;51.966;4.602;2023-12-14T02:14:16;64270.78;;;9.09;100.00
41636;BME280;27623;51.966;4.602;2023-12-14T02:16:41;64231.19;;;9.03;100.00
41636;BME280;27623;51.966;4.602;2023-12-14T02:19:07;64228.84;;;9.05;100.00
41636;BME280;27623;51.966;4.602;2023-12-14T02:21:32;64252.63;;;8.96;100.00
41636;BME280;27623;51.966;4.602;2023-12-14T02:24:00;64229.38;;;8.99;100.00
41636;BME280;27623;51.966;4.602;2023-12-14T02:26:28;64247.16;;;8.84;100.00
41636;BME280;27623;51.966;4.602;2023-12-14T02:28:53;64226.66;;;8.96;100.00
41636;BME280;27623;51.966;4.602;2023-12-14T02:31:19;64236.81;;;8.96;100.00
41636;BME280;27623;51.966;4.602;2023-12-14T02:33:45;64245.16;;;8.85;100.00
41636;BME280;27623;51.966;4.602;2023-12-14T02:36:10;64226.84;;;8.84;100.00
41636;BME280;27623;51.966;4.602;2023-12-14T02:38:35;64262.78;;;8.89;100.00
41636;BME280;27623;51.966;4.602;2023-12-14T02:41:01;64219.75;;;8.85;100.00
41636;BME280;27623;51.966;4.602;2023-12-14T02:43:26;64197.63;;;8.88;100.00
41636;BME280;27623;51.966;4.602;2023-12-14T02:45:54;64201.44;;;8.99;100.00
41636;BME280;27623;51.966;4.602;2023-12-14T02:48:20;64237.38;;;8.89;100.00
41636;BME280;27623;51.966;4.602;2023-12-14T02:50:48;64202.69;;;8.81;100.00
41636;BME280;27623;51.966;4.602;2023-12-14T02:53:14;64214.66;;;8.78;100.00
41636;BME280;27623;51.966;4.602;2023-12-14T02:55:39;64225.94;;;8.86;100.00
41636;BME280;27623;51.966;4.602;2023-12-14T02:58:05;64204.88;;;8.76;100.00
41636;BME280;27623;51.966;4.602;2023-12-14T03:00:31;64209.41;;;8.82;100.00
41636;BME280;27623;51.966;4.602;2023-12-14T03:02:56;64237.91;;;8.90;100.00
41636;BME280;27623;51.966;4.602;2023-12-14T03:05:24;64224.31;;;8.84;100.00
41636;BME280;27623;51.966;4.602;2023-12-14T03:07:51;64199.78;;;8.76;100.00
41636;BME280;27623;51.966;4.602;2023-12-14T03:10:19;64163.50;;;8.80;100.00
41636;BME280;27623;51.966;4.602;2023-12-14T03:12:47;64221.03;;;8.81;100.00
41636;BME280;27623;51.966;4.602;2023-12-14T03:15:12;64243.00;;;8.90;100.00
41636;BME280;27623;51.966;4.602;2023-12-14T03:17:41;64215.94;;;8.95;100.00
41636;BME280;27623;51.966;4.602;2023-12-14T03:20:09;64230.84;;;8.90;100.00
41636;BME280;27623;51.966;4.602;2023-12-14T03:22:35;64208.16;;;8.86;100.00
41636;BME280;27623;51.966;4.602;2023-12-14T03:25:00;64235.53;;;8.78;100.00
41636;BME280;27623;51.966;4.602;2023-12-14T03:27:26;64180.56;;;8.84;100.00
41636;BME280;27623;51.966;4.602;2023-12-14T03:29:53;64180.19;;;8.86;100.00
41636;BME280;27623;51.966;4.602;2023-12-14T03:32:18;64250.09;;;8.89;100.00
41636;BME280;27623;51.966;4.602;2023-12-14T03:34:44;64203.63;;;8.86;100.00
41636;BME280;27623;51.966;4.602;2023-12-14T03:37:09;64234.47;;;8.84;100.00
41636;BME280;27623;51.966;4.602;2023-12-14T03:39:37;64251.53;;;8.95;100.00
41636;BME280;27623;51.966;4.602;2023-12-14T03:42:03;64229.94;;;8.92;100.00
41636;BME280;27623;51.966;4.602;2023-12-14T03:44:31;64205.06;;;8.85;100.00
41636;BME280;27623;51.966;4.602;2023-12-14T03:46:59;64211.59;;;8.77;100.00
41636;BME280;27623;51.966;4.602;2023-12-14T03:49:27;64213.78;;;8.79;100.00
41636;BME280;27623;51.966;4.602;2023-12-14T03:51:53;64215.56;;;8.76;100.00
41636;BME280;27623;51.966;4.602;2023-12-14T03:54:18;64201.06;;;8.72;100.00
41636;BME280;27623;51.966;4.602;2023-12-14T03:56:43;64203.25;;;8.67;100.00
41636;BME280;27623;51.966;4.602;2023-12-14T03:59:09;64193.81;;;8.70;100.00
41636;BME280;27623;51.966;4.602;2023-12-14T04:01:34;64183.47;;;8.60;100.00
41636;BME280;27623;51.966;4.602;2023-12-14T04:04:02;64168.22;;;8.60;100.00
41636;BME280;27623;51.966;4.602;2023-12-14T04:06:27;64212.31;;;8.66;100.00
41636;BME280;27623;51.966;4.602;2023-12-14T04:08:55;64175.84;;;8.68;100.00
41636;BME280;27623;51.966;4.602;2023-12-14T04:11:20;64216.50;;;8.68;100.00
41636;BME280;27623;51.966;4.602;2023-12-14T04:13:45;64197.59;;;8.59;100.00
41636;BME280;27623;51.966;4.602;2023-12-14T04:16:15;64184.38;;;8.66;100.00
41636;BME280;27623;51.966;4.602;2023-12-14T04:18:46;64175.47;;;8.55;100.00
41636;BME280;27623;51.966;4.602;2023-12-14T04:21:11;64221.19;;;8.63;100.00
41636;BME280;27623;51.966;4.602;2023-12-14T04:23:39;64196.16;;;8.68;100.00
41636;BME280;27623;51.966;4.602;2023-12-14T04:26:04;64207.22;;;8.66;100.00
41636;BME280;27623;51.966;4.602;2023-12-14T04:28:30;64211.97;;;8.82;100.00
41636;BME280;27623;51.966;4.602;2023-12-14T04:30:55;64175.31;;;8.81;100.00
41636;BME280;27623;51.966;4.602;2023-12-14T04:33:23;64206.88;;;8.82;100.00
41636;BME280;27623;51.966;4.602;2023-12-14T04:35:48;64206.16;;;8.79;100.00
41636;BME280;27623;51.966;4.602;2023-12-14T04:38:13;64198.00;;;8.86;100.00
41636;BME280;27623;51.966;4.602;2023-12-14T04:40:39;64175.66;;;8.58;100.00
41636;BME280;27623;51.966;4.602;2023-12-14T04:43:04;64163.69;;;8.61;100.00
41636;BME280;27623;51.966;4.602;2023-12-14T04:45:34;64204.16;;;8.80;100.00
41636;BME280;27623;51.966;4.602;2023-12-14T04:47:59;64199.44;;;8.78;100.00
41636;BME280;27623;51.966;4.602;2023-12-14T04:50:25;64184.00;;;8.68;100.00
41636;BME280;27623;51.966;4.602;2023-12-14T04:52:50;64208.31;;;8.67;100.00
41636;BME280;27623;51.966;4.602;2023-12-14T04:55:15;64167.13;;;8.67;100.00
41636;BME280;27623;51.966;4.602;2023-12-14T04:57:41;64195.97;;;8.58;100.00
41636;BME280;27623;51.966;4.602;2023-12-14T05:00:09;64200.88;;;8.63;100.00
41636;BME280;27623;51.966;4.602;2023-12-14T05:02:40;64207.94;;;8.55;100.00
41636;BME280;27623;51.966;4.602;2023-12-14T05:05:08;64178.91;;;8.54;100.00
41636;BME280;27623;51.966;4.602;2023-12-14T05:07:33;64200.16;;;8.59;100.00
41636;BME280;27623;51.966;4.602;2023-12-14T05:09:58;64212.31;;;8.66;100.00
41636;BME280;27623;51.966;4.602;2023-12-14T05:12:24;64173.13;;;8.65;100.00
41636;BME280;27623;51.966;4.602;2023-12-14T05:14:51;64162.22;;;8.55;100.00
41636;BME280;27623;51.966;4.602;2023-12-14T05:17:18;64172.59;;;8.50;100.00
41636;BME280;27623;51.966;4.602;2023-12-14T05:19:44;64204.50;;;8.56;100.00
41636;BME280;27623;51.966;4.602;2023-12-14T05:22:12;64239.34;;;8.68;100.00
41636;BME280;27623;51.966;4.602;2023-12-14T05:24:44;64204.34;;;8.68;100.00
41636;BME280;27623;51.966;4.602;2023-12-14T05:27:12;64206.16;;;8.79;100.00
41636;BME280;27623;51.966;4.602;2023-12-14T05:29:37;64186.72;;;8.64;100.00
41636;BME280;27623;51.966;4.602;2023-12-14T05:32:03;64222.84;;;8.78;100.00
41636;BME280;27623;51.966;4.602;2023-12-14T05:34:28;64173.84;;;8.68;100.00
41636;BME280;27623;51.966;4.602;2023-12-14T05:36:56;64238.63;;;8.72;100.00
41636;BME280;27623;51.966;4.602;2023-12-14T05:39:21;64208.69;;;8.79;100.00
41636;BME280;27623;51.966;4.602;2023-12-14T05:41:51;64208.69;;;8.72;100.00
41636;BME280;27623;51.966;4.602;2023-12-14T05:44:17;64178.91;;;8.54;100.00
41636;BME280;27623;51.966;4.602;2023-12-14T05:46:44;64150.09;;;8.48;100.00
41636;BME280;27623;51.966;4.602;2023-12-14T05:49:10;64153.91;;;8.52;100.00
41636;BME280;27623;51.966;4.602;2023-12-14T05:51:35;64152.25;;;8.57;100.00
41636;BME280;27623;51.966;4.602;2023-12-14T05:54:02;64185.81;;;8.58;100.00
41636;BME280;27623;51.966;4.602;2023-12-14T05:56:29;64196.69;;;8.54;100.00
41636;BME280;27623;51.966;4.602;2023-12-14T05:58:55;64147.72;;;8.44;100.00
41636;BME280;27623;51.966;4.602;2023-12-14T06:01:20;64174.03;;;8.56;100.00
41636;BME280;27623;51.966;4.602;2023-12-14T06:03:46;64180.38;;;8.60;100.00
41636;BME280;27623;51.966;4.602;2023-12-14T06:06:14;64178.03;;;8.63;100.00
41636;BME280;27623;51.966;4.602;2023-12-14T06:08:39;64173.84;;;8.61;100.00
41636;BME280;27623;51.966;4.602;2023-12-14T06:11:08;64187.09;;;8.47;100.00
41636;BME280;27623;51.966;4.602;2023-12-14T06:13:33;64151.16;;;8.28;100.00
41636;BME280;27623;51.966;4.602;2023-12-14T06:15:59;64187.94;;;8.32;100.00
41636;BME280;27623;51.966;4.602;2023-12-14T06:18:27;64174.72;;;8.31;100.00
41636;BME280;27623;51.966;4.602;2023-12-14T06:20:52;64162.78;;;8.48;100.00
41636;BME280;27623;51.966;4.602;2023-12-14T06:23:18;64181.44;;;8.33;100.00
41636;BME280;27623;51.966;4.602;2023-12-14T06:25:43;64199.94;;;8.36;100.00
41636;BME280;27623;51.966;4.602;2023-12-14T06:28:11;64158.22;;;8.27;100.00
41636;BME280;27623;51.966;4.602;2023-12-14T06:30:39;64172.56;;;8.36;100.00
41636;BME280;27623;51.966;4.602;2023-12-14T06:33:05;64149.34;;;8.38;100.00
41636;BME280;27623;51.966;4.602;2023-12-14T06:35:30;64164.22;;;8.33;100.00
41636;BME280;27623;51.966;4.602;2023-12-14T06:37:56;64158.97;;;8.38;100.00
41636;BME280;27623;51.966;4.602;2023-12-14T06:40:23;64140.47;;;8.35;100.00
41636;BME280;27623;51.966;4.602;2023-12-14T06:42:53;64150.06;;;8.34;100.00
41636;BME280;27623;51.966;4.602;2023-12-14T06:45:21;64126.31;;;8.36;100.00
41636;BME280;27623;51.966;4.602;2023-12-14T06:47:49;64173.09;;;8.30;100.00
41636;BME280;27623;51.966;4.602;2023-12-14T06:50:15;64163.47;;;8.30;100.00
41636;BME280;27623;51.966;4.602;2023-12-14T06:52:40;64112.88;;;8.25;100.00
41636;BME280;27623;51.966;4.602;2023-12-14T06:55:08;64098.72;;;8.12;100.00
41636;BME280;27623;51.966;4.602;2023-12-14T06:57:34;64159.66;;;8.19;100.00
41636;BME280;27623;51.966;4.602;2023-12-14T07:00:02;64145.31;;;8.18;100.00
41636;BME280;27623;51.966;4.602;2023-12-14T07:02:27;64151.31;;;8.23;100.00
41636;BME280;27623;51.966;4.602;2023-12-14T07:04:55;64184.34;;;8.38;100.00
41636;BME280;27623;51.966;4.602;2023-12-14T07:07:22;64182.34;;;8.31;100.00
41636;BME280;27623;51.966;4.602;2023-12-14T07:09:47;64190.47;;;8.32;100.00
41636;BME280;27623;51.966;4.602;2023-12-14T07:12:13;64111.44;;;8.19;100.00
41636;BME280;27623;51.966;4.602;2023-12-14T07:14:42;64145.69;;;8.23;100.00
41636;BME280;27623;51.966;4.602;2023-12-14T07:17:12;64128.47;;;8.09;100.00
41636;BME280;27623;51.966;4.602;2023-12-14T07:19:40;64131.16;;;8.12;100.00
41636;BME280;27623;51.966;4.602;2023-12-14T07:22:05;64119.41;;;8.17;100.00
41636;BME280;27623;51.966;4.602;2023-12-14T07:24:33;64096.75;;;8.06;100.00
41636;BME280;27623;51.966;4.602;2023-12-14T07:26:58;64128.47;;;8.16;100.00
41636;BME280;27623;51.966;4.602;2023-12-14T07:29:23;64110.53;;;8.07;100.00
41636;BME280;27623;51.966;4.602;2023-12-14T07:31:49;64119.75;;;8.08;100.00
41636;BME280;27623;51.966;4.602;2023-12-14T07:34:14;64070.47;;;8.00;100.00
41636;BME280;27623;51.966;4.602;2023-12-14T07:36:40;64135.91;;;8.21;100.00
41636;BME280;27623;51.966;4.602;2023-12-14T07:39:05;64159.47;;;8.24;100.00
41636;BME280;27623;51.966;4.602;2023-12-14T07:41:33;64123.94;;;8.17;100.00
41636;BME280;27623;51.966;4.602;2023-12-14T07:43:58;64168.56;;;8.30;100.00
41636;BME280;27623;51.966;4.602;2023-12-14T07:46:26;64152.97;;;8.32;100.00
41636;BME280;27623;51.966;4.602;2023-12-14T07:48:53;64139.34;;;8.26;100.00
41636;BME280;27623;51.966;4.602;2023-12-14T07:51:21;64111.25;;;8.24;100.00
41636;BME280;27623;51.966;4.602;2023-12-14T07:53:46;64148.94;;;8.19;100.00
41636;BME280;27623;51.966;4.602;2023-12-14T07:56:12;64127.00;;;8.03;100.00
41636;BME280;27623;51.966;4.602;2023-12-14T07:58:40;64123.72;;;7.93;100.00
41636;BME280;27623;51.966;4.602;2023-12-14T08:01:05;64155.66;;;8.06;100.00
41636;BME280;27623;51.966;4.602;2023-12-14T08:03:31;64103.97;;;7.93;100.00
41636;BME280;27623;51.966;4.602;2023-12-14T08:05:56;64087.13;;;7.85;100.00
41636;BME280;27623;51.966;4.602;2023-12-14T08:08:21;64120.09;;;7.85;100.00
41636;BME280;27623;51.966;4.602;2023-12-14T08:10:47;64111.78;;;7.96;100.00
41636;BME280;27623;51.966;4.602;2023-12-14T08:13:12;64111.03;;;7.86;100.00
41636;BME280;27623;51.966;4.602;2023-12-14T08:15:40;64125.00;;;7.82;100.00
41636;BME280;27623;51.966;4.602;2023-12-14T08:18:05;64091.25;;;7.72;100.00
41636;BME280;27623;51.966;4.602;2023-12-14T08:20:33;64074.63;;;7.66;100.00
41636;BME280;27623;51.966;4.602;2023-12-14T08:22:59;64109.41;;;7.91;100.00
41636;BME280;27623;51.966;4.602;2023-12-14T08:25:24;64114.28;;;7.82;100.00
41636;BME280;27623;51.966;4.602;2023-12-14T08:27:50;64080.97;;;7.91;100.00
41636;BME280;27623;51.966;4.602;2023-12-14T08:30:18;64108.69;;;8.03;100.00
41636;BME280;27623;51.966;4.602;2023-12-14T08:32:43;64123.00;;;8.11;100.00
41636;BME280;27623;51.966;4.602;2023-12-14T08:35:14;64134.09;;;8.17;100.00
41636;BME280;27623;51.966;4.602;2023-12-14T08:37:39;64133.72;;;8.12;100.00
41636;BME280;27623;51.966;4.602;2023-12-14T08:40:05;64145.16;;;8.08;100.00
41636;BME280;27623;51.966;4.602;2023-12-14T08:42:31;64102.00;;;8.01;100.00
41636;BME280;27623;51.966;4.602;2023-12-14T08:44:56;64141.16;;;8.16;100.00
41636;BME280;27623;51.966;4.602;2023-12-14T08:47:24;64143.16;;;8.09;100.00
41636;BME280;27623;51.966;4.602;2023-12-14T08:49:49;64125.38;;;8.23;100.00
41636;BME280;27623;51.966;4.602;2023-12-14T08:52:15;64156.22;;;8.28;100.00
41636;BME280;27623;51.966;4.602;2023-12-14T08:54:42;64140.66;;;8.44;100.00
41636;BME280;27623;51.966;4.602;2023-12-14T08:57:11;64147.34;;;8.39;100.00
41636;BME280;27623;51.966;4.602;2023-12-14T08:59:39;64160.75;;;8.35;100.00
41636;BME280;27623;51.966;4.602;2023-12-14T09:02:04;64182.72;;;8.36;100.00
41636;BME280;27623;51.966;4.602;2023-12-14T09:04:32;64200.31;;;8.48;100.00
41636;BME280;27623;51.966;4.602;2023-12-14T09:07:00;64201.25;;;8.68;100.00
41636;BME280;27623;51.966;4.602;2023-12-14T09:09:26;64139.38;;;8.55;100.00
41636;BME280;27623;51.966;4.602;2023-12-14T09:11:51;64190.53;;;8.60;100.00
41636;BME280;27623;51.966;4.602;2023-12-14T09:14:16;64186.56;;;8.68;100.00
41636;BME280;27623;51.966;4.602;2023-12-14T09:16:42;64206.69;;;8.87;100.00
41636;BME280;27623;51.966;4.602;2023-12-14T09:19:09;64237.56;;;8.85;100.00
41636;BME280;27623;51.966;4.602;2023-12-14T09:21:35;64201.44;;;8.77;100.00
41636;BME280;27623;51.966;4.602;2023-12-14T09:24:02;64207.06;;;8.92;100.00
41636;BME280;27623;51.966;4.602;2023-12-14T09:26:27;64194.72;;;8.90;100.00
41636;BME280;27623;51.966;4.602;2023-12-14T09:28:53;64232.28;;;8.89;100.00
41636;BME280;27623;51.966;4.602;2023-12-14T09:31:18;64215.41;;;8.95;100.00
41636;BME280;27623;51.966;4.602;2023-12-14T09:33:46;64225.03;;;8.94;100.00
41636;BME280;27623;51.966;4.602;2023-12-14T09:36:11;64176.03;;;8.77;100.00
41636;BME280;27623;51.966;4.602;2023-12-14T09:38:40;64181.09;;;8.84;100.00
41636;BME280;27623;51.966;4.602;2023-12-14T09:41:05;64224.84;;;8.85;99.27
41636;BME280;27623;51.966;4.602;2023-12-14T09:43:32;64234.28;;;8.89;99.65
41636;BME280;27623;51.966;4.602;2023-12-14T09:45:58;64191.25;;;8.77;99.91
41636;BME280;27623;51.966;4.602;2023-12-14T09:48:25;64195.25;;;8.69;98.62
41636;BME280;27623;51.966;4.602;2023-12-14T09:50:50;64187.09;;;8.61;100.00
41636;BME280;27623;51.966;4.602;2023-12-14T09:53:15;64197.59;;;8.74;100.00
41636;BME280;27623;51.966;4.602;2023-12-14T09:55:41;64188.00;;;8.81;100.00
41636;BME280;27623;51.966;4.602;2023-12-14T09:58:06;64183.47;;;8.68;100.00
41636;BME280;27623;51.966;4.602;2023-12-14T10:00:39;64186.34;;;8.58;100.00
41636;BME280;27623;51.966;4.602;2023-12-14T10:03:24;64172.03;;;8.50;100.00
41636;BME280;27623;51.966;4.602;2023-12-14T10:05:58;64170.75;;;8.53;100.00
41636;BME280;27623;51.966;4.602;2023-12-14T10:08:24;64187.63;;;8.62;99.69
41636;BME280;27623;51.966;4.602;2023-12-14T10:10:54;64198.16;;;8.81;98.15
41636;BME280;27623;51.966;4.602;2023-12-14T10:13:38;64198.88;;;8.77;100.00
41636;BME280;27623;51.966;4.602;2023-12-14T10:16:07;64179.47;;;8.90;98.97
41636;BME280;27623;51.966;4.602;2023-12-14T10:18:33;64215.56;;;8.76;100.00
41636;BME280;27623;51.966;4.602;2023-12-14T10:21:02;64169.69;;;8.81;99.72
41636;BME280;27623;51.966;4.602;2023-12-14T10:23:33;64234.66;;;9.08;96.80
41636;BME280;27623;51.966;4.602;2023-12-14T10:26:06;64230.13;;;9.02;94.37
41636;BME280;27623;51.966;4.602;2023-12-14T10:28:34;64192.72;;;8.76;93.22
41636;BME280;27623;51.966;4.602;2023-12-14T10:30:59;64244.81;;;9.01;94.32
41636;BME280;27623;51.966;4.602;2023-12-14T10:33:24;64200.16;;;8.81;94.47
41636;BME280;27623;51.966;4.602;2023-12-14T10:35:51;64181.44;;;8.54;96.10
41636;BME280;27623;51.966;4.602;2023-12-14T10:38:17;64177.47;;;8.62;96.36
41636;BME280;27623;51.966;4.602;2023-12-14T10:40:44;64236.09;;;9.00;97.37
41636;BME280;27623;51.966;4.602;2023-12-14T10:43:10;64253.00;;;9.23;95.63
41636;BME280;27623;51.966;4.602;2023-12-14T10:45:41;64231.75;;;9.10;93.38
41636;BME280;27623;51.966;4.602;2023-12-14T10:48:11;64241.94;;;9.10;94.57
41636;BME280;27623;51.966;4.602;2023-12-14T10:50:42;64227.94;;;9.21;93.55
41636;BME280;27623;51.966;4.602;2023-12-14T10:53:08;64223.03;;;9.23;90.86
41636;BME280;27623;51.966;4.602;2023-12-14T10:55:40;64247.56;;;9.32;90.24
41636;BME280;27623;51.966;4.602;2023-12-14T10:58:08;64231.22;;;9.10;90.79
41636;BME280;27623;51.966;4.602;2023-12-14T11:00:33;64221.41;;;8.93;89.71
41636;BME280;27623;51.966;4.602;2023-12-14T11:03:00;64196.91;;;8.92;91.12
41636;BME280;27623;51.966;4.602;2023-12-14T11:05:27;64158.59;;;8.75;91.13
41636;BME280;27623;51.966;4.602;2023-12-14T11:08:00;64124.13;;;8.26;89.39
41636;BME280;27623;51.966;4.602;2023-12-14T11:10:36;64173.47;;;8.56;91.62
41636;BME280;27623;51.966;4.602;2023-12-14T11:13:06;64168.59;;;8.66;93.05
41636;BME280;27623;51.966;4.602;2023-12-14T11:15:35;64159.53;;;8.67;91.73
41636;BME280;27623;51.966;4.602;2023-12-14T11:20:56;64188.00;;;8.81;92.00
41636;BME280;27623;51.966;4.602;2023-12-14T11:25:55;64214.31;;;9.15;92.15
41636;BME280;27623;51.966;4.602;2023-12-14T11:28:21;64230.84;;;9.19;91.06
41636;BME280;27623;51.966;4.602;2023-12-14T11:30:47;64245.56;;;9.25;89.87
41636;BME280;27623;51.966;4.602;2023-12-14T11:33:16;64267.53;;;9.34;91.23
41636;BME280;27623;51.966;4.602;2023-12-14T11:35:42;64270.44;;;9.25;90.43
41636;BME280;27623;51.966;4.602;2023-12-14T11:38:09;64206.50;;;8.84;91.15
41636;BME280;27623;51.966;4.602;2023-12-14T11:40:41;64119.97;;;8.39;94.72
41636;BME280;27623;51.966;4.602;2023-12-14T11:43:07;64171.13;;;8.80;95.38
41636;BME280;27623;51.966;4.602;2023-12-14T11:45:39;64195.97;;;8.79;95.26
41636;BME280;27623;51.966;4.602;2023-12-14T11:48:09;64151.91;;;8.67;93.99
41636;BME280;27623;51.966;4.602;2023-12-14T11:50:38;64155.91;;;8.73;96.68
41636;BME280;27623;51.966;4.602;2023-12-14T11:53:04;64197.06;;;8.66;97.46
41636;BME280;27623;51.966;4.602;2023-12-14T11:55:31;64180.00;;;8.62;99.34
41636;BME280;27623;51.966;4.602;2023-12-14T11:57:57;64138.09;;;8.23;99.34
41636;BME280;27623;51.966;4.602;2023-12-14T12:00:27;64086.41;;;8.10;98.94
41636;BME280;27623;51.966;4.602;2023-12-14T12:03:19;64091.31;;;8.08;100.00
41636;BME280;27623;51.966;4.602;2023-12-14T12:05:50;64105.25;;;8.04;100.00
41636;BME280;27623;51.966;4.602;2023-12-14T12:08:19;64147.84;;;8.11;100.00
41636;BME280;27623;51.966;4.602;2023-12-14T12:10:45;64110.72;;;8.31;100.00
41636;BME280;27623;51.966;4.602;2023-12-14T12:13:19;64144.25;;;8.31;100.00
41636;BME280;27623;51.966;4.602;2023-12-14T12:15:46;64138.63;;;8.31;100.00
41636;BME280;27623;51.966;4.602;2023-12-14T12:18:13;64126.47;;;8.10;100.00
41636;BME280;27623;51.966;4.602;2023-12-14T12:20:42;64141.00;;;8.42;100.00
41636;BME280;27623;51.966;4.602;2023-12-14T12:23:07;64165.31;;;8.63;100.00
41636;BME280;27623;51.966;4.602;2023-12-14T12:25:35;64101.44;;;7.93;100.00
41636;BME280;27623;51.966;4.602;2023-12-14T12:28:06;64152.06;;;8.41;100.00
41636;BME280;27623;51.966;4.602;2023-12-14T12:30:31;64148.09;;;8.42;100.00
41636;BME280;27623;51.966;4.602;2023-12-14T12:32:59;64131.38;;;8.28;100.00
41636;BME280;27623;51.966;4.602;2023-12-14T12:35:25;64163.50;;;8.51;100.00
41636;BME280;27623;51.966;4.602;2023-12-14T12:37:51;64094.56;;;8.25;100.00
41636;BME280;27623;51.966;4.602;2023-12-14T12:40:24;64150.97;;;8.33;100.00
41636;BME280;27623;51.966;4.602;2023-12-14T12:42:55;64117.94;;;8.18;100.00
41636;BME280;27623;51.966;4.602;2023-12-14T12:45:22;64115.41;;;8.18;100.00
41636;BME280;27623;51.966;4.602;2023-12-14T12:47:51;64106.53;;;8.08;100.00
41636;BME280;27623;51.966;4.602;2023-12-14T12:50:19;64126.66;;;8.26;100.00
41636;BME280;27623;51.966;4.602;2023-12-14T12:52:45;64134.97;;;8.15;100.00
41636;BME280;27623;51.966;4.602;2023-12-14T12:55:16;64121.19;;;8.00;100.00
41636;BME280;27623;51.966;4.602;2023-12-14T12:57:41;64094.16;;;7.70;100.00
41636;BME280;27623;51.966;4.602;2023-12-14T13:00:10;64058.31;;;7.79;100.00
41636;BME280;27623;51.966;4.602;2023-12-14T13:02:41;64140.56;;;7.94;100.00
41636;BME280;27623;51.966;4.602;2023-12-14T13:05:08;64090.03;;;8.18;100.00